createdAt,value
2017-03-11T00:00:35.197Z,1021.08
2017-03-11T00:01:35.216Z,1021.11
2017-03-11T00:02:35.233Z,1021.08
2017-03-11T00:03:35.254Z,1021.06
2017-03-11T00:04:35.273Z,1021.05
2017-03-11T00:05:35.291Z,1021.05
2017-03-11T00:06:35.310Z,1021.02
2017-03-11T00:07:35.329Z,1021.06
2017-03-11T00:08:35.349Z,1021.09
2017-03-11T00:09:35.367Z,1021.14
2017-03-11T00:10:35.387Z,1021.16
2017-03-11T00:12:35.425Z,1021.2
2017-03-11T00:13:35.443Z,1021.17
2017-03-11T00:14:35.462Z,1021.14
2017-03-11T00:15:35.482Z,1021.09
2017-03-11T00:16:35.500Z,1021.14
2017-03-11T00:17:35.520Z,1021.13
2017-03-11T00:18:35.538Z,1021.13
2017-03-11T00:19:36.190Z,1021.18
2017-03-11T00:20:35.576Z,1021.13
2017-03-11T00:21:35.595Z,1021.16
2017-03-11T00:22:35.614Z,1021.17
2017-03-11T00:23:35.633Z,1021.19
2017-03-11T00:24:35.651Z,1021.15
2017-03-11T00:25:35.670Z,1021.18
2017-03-11T00:26:35.690Z,1021.17
2017-03-11T00:28:35.726Z,1021.16
2017-03-11T00:29:35.745Z,1021.15
2017-03-11T00:30:35.765Z,1021.12
2017-03-11T00:31:35.783Z,1021.11
2017-03-11T00:32:35.802Z,1021.16
2017-03-11T00:33:35.821Z,1021.1
2017-03-11T00:34:35.841Z,1021.14
2017-03-11T00:35:35.859Z,1021.09
2017-03-11T00:36:35.878Z,1021.15
2017-03-11T00:37:35.897Z,1021.1
2017-03-11T00:38:35.916Z,1021.08
2017-03-11T00:39:35.935Z,1021.09
2017-03-11T00:40:35.954Z,1021.03
2017-03-11T00:41:35.973Z,1021.05
2017-03-11T00:42:35.991Z,1021.03
2017-03-11T00:44:36.029Z,1021.04
2017-03-11T00:45:36.048Z,1021.03
2017-03-11T00:46:36.066Z,1021.07
2017-03-11T00:47:36.086Z,1021.08
2017-03-11T00:48:36.105Z,1021.07
2017-03-11T00:49:36.123Z,1021.07
2017-03-11T00:50:36.142Z,1021.07
2017-03-11T00:51:36.161Z,1021.04
2017-03-11T00:52:36.180Z,1021.07
2017-03-11T00:53:36.198Z,1021.05
2017-03-11T00:54:36.217Z,1021.06
2017-03-11T00:55:36.237Z,1021.05
2017-03-11T00:56:36.255Z,1021.04
2017-03-11T00:57:36.275Z,1021.06
2017-03-11T00:59:36.313Z,1021.12
2017-03-11T01:00:36.331Z,1021.1
2017-03-11T01:01:36.350Z,1021.1
2017-03-11T01:02:36.370Z,1021.09
2017-03-11T01:03:36.388Z,1021.1
2017-03-11T01:04:36.406Z,1021.06
2017-03-11T01:05:36.425Z,1021.06
2017-03-11T01:06:36.444Z,1020.98
2017-03-11T01:07:36.462Z,1021
2017-03-11T01:08:36.482Z,1021.01
2017-03-11T01:09:36.501Z,1020.98
2017-03-11T01:10:36.519Z,1020.97
2017-03-11T01:11:36.537Z,1020.99
2017-03-11T01:12:36.557Z,1020.95
2017-03-11T01:13:36.576Z,1020.94
2017-03-11T01:14:36.595Z,1020.88
2017-03-11T01:15:36.612Z,1020.84
2017-03-11T01:16:36.632Z,1020.84
2017-03-11T01:17:36.650Z,1020.86
2017-03-11T01:18:36.669Z,1020.82
2017-03-11T01:19:36.687Z,1020.84
2017-03-11T01:20:36.707Z,1020.85
2017-03-11T01:21:36.725Z,1020.83
2017-03-11T01:22:36.743Z,1020.86
2017-03-11T01:23:36.763Z,1020.85
2017-03-11T01:24:36.781Z,1020.86
2017-03-11T01:25:36.801Z,1020.82
2017-03-11T01:26:36.819Z,1020.81
2017-03-11T01:27:36.837Z,1020.82
2017-03-11T01:28:36.856Z,1020.82
2017-03-11T01:29:36.874Z,1020.82
2017-03-11T01:31:36.912Z,1020.83
2017-03-11T01:32:36.931Z,1020.83
2017-03-11T01:33:36.950Z,1020.88
2017-03-11T01:34:36.968Z,1020.84
2017-03-11T01:35:36.987Z,1020.83
2017-03-11T01:36:37.006Z,1020.83
2017-03-11T01:37:37.023Z,1020.84
2017-03-11T01:38:37.043Z,1020.81
2017-03-11T01:39:37.061Z,1020.82
2017-03-11T01:40:37.079Z,1020.85
2017-03-11T01:41:37.098Z,1020.84
2017-03-11T01:42:37.118Z,1020.85
2017-03-11T01:43:37.137Z,1020.84
2017-03-11T01:44:37.154Z,1020.85
2017-03-11T01:45:37.172Z,1020.81
2017-03-11T01:47:37.662Z,1020.79
2017-03-11T01:48:37.229Z,1020.79
2017-03-11T01:49:37.248Z,1020.81
2017-03-11T01:50:37.267Z,1020.81
2017-03-11T01:51:37.284Z,1020.78
2017-03-11T01:52:37.303Z,1020.78
2017-03-11T01:53:37.322Z,1020.77
2017-03-11T01:54:37.343Z,1020.73
2017-03-11T01:55:37.358Z,1020.71
2017-03-11T01:56:37.377Z,1020.73
2017-03-11T01:57:37.396Z,1020.72
2017-03-11T01:58:37.415Z,1020.69
2017-03-11T01:59:37.433Z,1020.68
2017-03-11T02:00:37.468Z,1020.65
2017-03-11T02:01:37.471Z,1020.66
2017-03-11T02:03:37.510Z,1020.65
2017-03-11T02:04:37.526Z,1020.65
2017-03-11T02:05:37.545Z,1020.67
2017-03-11T02:06:37.563Z,1020.68
2017-03-11T02:07:37.585Z,1020.65
2017-03-11T02:08:37.600Z,1020.65
2017-03-11T02:09:37.619Z,1020.6
2017-03-11T02:10:37.637Z,1020.61
2017-03-11T02:11:37.656Z,1020.6
2017-03-11T02:12:37.674Z,1020.57
2017-03-11T02:13:37.692Z,1020.55
2017-03-11T02:14:37.711Z,1020.55
2017-03-11T02:15:37.729Z,1020.56
2017-03-11T02:16:37.748Z,1020.54
2017-03-11T02:17:37.765Z,1020.53
2017-03-11T02:19:37.803Z,1020.53
2017-03-11T02:20:37.821Z,1020.49
2017-03-11T02:21:37.839Z,1020.53
2017-03-11T02:22:37.858Z,1020.55
2017-03-11T02:23:37.877Z,1020.56
2017-03-11T02:24:37.894Z,1020.49
2017-03-11T02:25:37.913Z,1020.54
2017-03-11T02:26:37.931Z,1020.5
2017-03-11T02:27:37.950Z,1020.5
2017-03-11T02:28:37.968Z,1020.49
2017-03-11T02:29:37.985Z,1020.55
2017-03-11T02:30:38.006Z,1020.61
2017-03-11T02:31:38.024Z,1020.56
2017-03-11T02:32:38.043Z,1020.62
2017-03-11T02:34:38.081Z,1020.67
2017-03-11T02:35:38.096Z,1020.6
2017-03-11T02:36:38.116Z,1020.6
2017-03-11T02:37:38.135Z,1020.58
2017-03-11T02:38:38.152Z,1020.62
2017-03-11T02:39:38.170Z,1020.58
2017-03-11T02:40:38.189Z,1020.57
2017-03-11T02:41:38.207Z,1020.6
2017-03-11T02:42:38.526Z,1020.54
2017-03-11T02:43:38.243Z,1020.57
2017-03-11T02:44:38.262Z,1020.55
2017-03-11T02:45:38.280Z,1020.57
2017-03-11T02:46:38.298Z,1020.56
2017-03-11T02:47:38.317Z,1020.58
2017-03-11T02:48:38.335Z,1020.56
2017-03-11T02:49:38.354Z,1020.56
2017-03-11T02:50:38.371Z,1020.51
2017-03-11T02:51:38.389Z,1020.55
2017-03-11T02:52:38.408Z,1020.53
2017-03-11T02:53:38.426Z,1020.54
2017-03-11T02:54:38.444Z,1020.54
2017-03-11T02:55:38.463Z,1020.53
2017-03-11T02:56:38.482Z,1020.53
2017-03-11T02:57:38.500Z,1020.49
2017-03-11T02:58:38.518Z,1020.5
2017-03-11T02:59:38.537Z,1020.39
2017-03-11T03:00:38.555Z,1020.45
2017-03-11T03:01:38.572Z,1020.42
2017-03-11T03:02:38.591Z,1020.42
2017-03-11T03:03:38.610Z,1020.46
2017-03-11T03:04:38.626Z,1020.47
2017-03-11T03:06:38.663Z,1020.52
2017-03-11T03:07:38.682Z,1020.52
2017-03-11T03:08:38.699Z,1020.52
2017-03-11T03:09:38.718Z,1020.53
2017-03-11T03:10:38.738Z,1020.53
2017-03-11T03:11:38.755Z,1020.54
2017-03-11T03:12:38.773Z,1020.52
2017-03-11T03:13:38.792Z,1020.46
2017-03-11T03:14:38.811Z,1020.46
2017-03-11T03:15:38.827Z,1020.46
2017-03-11T03:16:38.845Z,1020.42
2017-03-11T03:17:38.864Z,1020.41
2017-03-11T03:18:38.883Z,1020.41
2017-03-11T03:19:38.900Z,1020.42
2017-03-11T03:20:38.919Z,1020.42
2017-03-11T03:22:38.956Z,1020.43
2017-03-11T03:23:38.973Z,1020.44
2017-03-11T03:24:38.991Z,1020.4
2017-03-11T03:25:39.010Z,1020.4
2017-03-11T03:26:39.027Z,1020.44
2017-03-11T03:27:39.046Z,1020.45
2017-03-11T03:28:39.064Z,1020.44
2017-03-11T03:29:39.082Z,1020.45
2017-03-11T03:30:39.100Z,1020.47
2017-03-11T03:31:39.118Z,1020.43
2017-03-11T03:32:39.136Z,1020.45
2017-03-11T03:33:39.154Z,1020.44
2017-03-11T03:34:39.172Z,1020.37
2017-03-11T03:35:39.190Z,1020.39
2017-03-11T03:36:39.209Z,1020.36
2017-03-11T03:38:39.244Z,1020.38
2017-03-11T03:39:39.263Z,1020.39
2017-03-11T03:40:39.281Z,1020.36
2017-03-11T03:41:39.298Z,1020.34
2017-03-11T03:42:39.316Z,1020.33
2017-03-11T03:43:39.335Z,1020.33
2017-03-11T03:44:39.353Z,1020.3
2017-03-11T03:45:39.371Z,1020.28
2017-03-11T03:46:39.389Z,1020.26
2017-03-11T03:47:39.407Z,1020.29
2017-03-11T03:48:39.425Z,1020.23
2017-03-11T03:49:39.442Z,1020.22
2017-03-11T03:50:39.462Z,1020.24
2017-03-11T03:51:39.480Z,1020.26
2017-03-11T03:52:39.496Z,1020.19
2017-03-11T03:54:39.560Z,1020.25
2017-03-11T03:55:39.558Z,1020.24
2017-03-11T03:56:39.568Z,1020.21
2017-03-11T03:57:39.588Z,1020.23
2017-03-11T03:58:39.606Z,1020.2
2017-03-11T03:59:39.623Z,1020.24
2017-03-11T04:00:39.641Z,1020.25
2017-03-11T04:01:39.660Z,1020.26
2017-03-11T04:02:39.678Z,1020.28
2017-03-11T04:03:39.695Z,1020.32
2017-03-11T04:04:39.714Z,1020.29
2017-03-11T04:05:39.733Z,1020.28
2017-03-11T04:06:39.750Z,1020.29
2017-03-11T04:07:39.768Z,1020.31
2017-03-11T04:09:39.805Z,1020.29
2017-03-11T04:10:39.822Z,1020.32
2017-03-11T04:11:39.840Z,1020.33
2017-03-11T04:12:39.859Z,1020.36
2017-03-11T04:13:39.877Z,1020.29
2017-03-11T04:14:39.894Z,1020.27
2017-03-11T04:15:39.912Z,1020.28
2017-03-11T04:16:39.930Z,1020.25
2017-03-11T04:17:39.948Z,1020.31
2017-03-11T04:18:39.966Z,1020.3
2017-03-11T04:19:39.984Z,1020.33
2017-03-11T04:20:40.004Z,1020.32
2017-03-11T04:21:40.020Z,1020.31
2017-03-11T04:22:40.037Z,1020.32
2017-03-11T04:23:40.056Z,1020.34
2017-03-11T04:24:40.074Z,1020.31
2017-03-11T04:25:40.091Z,1020.31
2017-03-11T04:26:40.110Z,1020.31
2017-03-11T04:27:40.127Z,1020.32
2017-03-11T04:28:40.146Z,1020.33
2017-03-11T04:29:40.163Z,1020.34
2017-03-11T04:30:40.180Z,1020.33
2017-03-11T04:31:40.202Z,1020.31
2017-03-11T04:32:40.215Z,1020.31
2017-03-11T04:33:40.234Z,1020.3
2017-03-11T04:34:40.252Z,1020.33
2017-03-11T04:35:40.270Z,1020.31
2017-03-11T04:36:40.287Z,1020.3
2017-03-11T04:37:40.305Z,1020.29
2017-03-11T04:38:40.323Z,1020.28
2017-03-11T04:39:40.340Z,1020.28
2017-03-11T04:41:40.376Z,1020.24
2017-03-11T04:42:40.394Z,1020.24
2017-03-11T04:43:40.411Z,1020.22
2017-03-11T04:44:40.429Z,1020.18
2017-03-11T04:45:40.447Z,1020.21
2017-03-11T04:46:40.466Z,1020.2
2017-03-11T04:47:40.482Z,1020.24
2017-03-11T04:48:40.501Z,1020.28
2017-03-11T04:49:40.518Z,1020.21
2017-03-11T04:50:40.535Z,1020.22
2017-03-11T04:51:40.553Z,1020.22
2017-03-11T04:52:40.571Z,1020.19
2017-03-11T04:53:40.589Z,1020.17
2017-03-11T04:54:40.606Z,1020.17
2017-03-11T04:55:40.624Z,1020.21
2017-03-11T04:57:40.660Z,1020.23
2017-03-11T04:58:40.677Z,1020.23
2017-03-11T04:59:40.695Z,1020.25
2017-03-11T05:00:40.713Z,1020.25
2017-03-11T05:01:40.730Z,1020.24
2017-03-11T05:02:40.747Z,1020.23
2017-03-11T05:03:40.765Z,1020.23
2017-03-11T05:04:40.783Z,1020.24
2017-03-11T05:05:40.800Z,1020.27
2017-03-11T05:06:40.817Z,1020.32
2017-03-11T05:07:40.839Z,1020.31
2017-03-11T05:08:40.853Z,1020.32
2017-03-11T05:09:40.870Z,1020.37
2017-03-11T05:10:40.888Z,1020.38
2017-03-11T05:11:40.909Z,1020.4
2017-03-11T05:13:40.941Z,1020.38
2017-03-11T05:14:40.962Z,1020.42
2017-03-11T05:15:40.977Z,1020.46
2017-03-11T05:16:40.992Z,1020.41
2017-03-11T05:17:41.012Z,1020.4
2017-03-11T05:18:41.029Z,1020.37
2017-03-11T05:19:41.047Z,1020.32
2017-03-11T05:20:41.065Z,1020.3
2017-03-11T05:21:41.082Z,1020.3
2017-03-11T05:22:41.099Z,1020.34
2017-03-11T05:23:41.116Z,1020.35
2017-03-11T05:24:41.134Z,1020.36
2017-03-11T05:25:41.152Z,1020.38
2017-03-11T05:26:41.169Z,1020.38
2017-03-11T05:27:41.186Z,1020.36
2017-03-11T05:29:41.221Z,1020.38
2017-03-11T05:30:41.239Z,1020.36
2017-03-11T05:31:41.256Z,1020.45
2017-03-11T05:32:41.273Z,1020.46
2017-03-11T05:33:41.292Z,1020.48
2017-03-11T05:34:41.309Z,1020.52
2017-03-11T05:35:41.326Z,1020.53
2017-03-11T05:36:41.344Z,1020.57
2017-03-11T05:37:41.362Z,1020.53
2017-03-11T05:38:41.378Z,1020.51
2017-03-11T05:39:41.396Z,1020.5
2017-03-11T05:40:41.414Z,1020.52
2017-03-11T05:41:41.432Z,1020.47
2017-03-11T05:42:41.450Z,1020.49
2017-03-11T05:44:41.485Z,1020.5
2017-03-11T05:45:41.502Z,1020.46
2017-03-11T05:46:41.523Z,1020.44
2017-03-11T05:47:41.538Z,1020.5
2017-03-11T05:48:41.556Z,1020.47
2017-03-11T05:49:41.573Z,1020.53
2017-03-11T05:50:41.590Z,1020.54
2017-03-11T05:51:41.608Z,1020.56
2017-03-11T05:52:41.625Z,1020.57
2017-03-11T05:53:41.643Z,1020.56
2017-03-11T05:54:41.661Z,1020.62
2017-03-11T05:55:41.679Z,1020.65
2017-03-11T05:56:41.696Z,1020.62
2017-03-11T05:57:41.714Z,1020.63
2017-03-11T05:58:41.732Z,1020.62
2017-03-11T05:59:41.750Z,1020.6
2017-03-11T06:00:41.766Z,1020.6
2017-03-11T06:01:41.784Z,1020.56
2017-03-11T06:02:41.802Z,1020.59
2017-03-11T06:03:41.821Z,1020.57
2017-03-11T06:04:41.837Z,1020.57
2017-03-11T06:05:41.855Z,1020.54
2017-03-11T06:06:41.873Z,1020.55
2017-03-11T06:07:41.889Z,1020.49
2017-03-11T06:08:41.907Z,1020.51
2017-03-11T06:09:41.925Z,1020.52
2017-03-11T06:10:41.943Z,1020.45
2017-03-11T06:11:41.960Z,1020.46
2017-03-11T06:12:41.981Z,1020.51
2017-03-11T06:13:41.997Z,1020.52
2017-03-11T06:14:42.013Z,1020.48
2017-03-11T06:16:42.049Z,1020.53
2017-03-11T06:17:42.068Z,1020.49
2017-03-11T06:18:42.084Z,1020.46
2017-03-11T06:19:42.103Z,1020.51
2017-03-11T06:20:42.120Z,1020.49
2017-03-11T06:21:42.138Z,1020.45
2017-03-11T06:22:42.180Z,1020.5
2017-03-11T06:23:42.174Z,1020.47
2017-03-11T06:24:42.192Z,1020.45
2017-03-11T06:25:42.208Z,1020.48
2017-03-11T06:26:42.226Z,1020.45
2017-03-11T06:27:42.245Z,1020.44
2017-03-11T06:28:42.262Z,1020.46
2017-03-11T06:29:42.279Z,1020.44
2017-03-11T06:30:42.297Z,1020.43
2017-03-11T06:32:42.334Z,1020.44
2017-03-11T06:33:42.380Z,1020.49
2017-03-11T06:34:42.369Z,1020.49
2017-03-11T06:35:42.387Z,1020.55
2017-03-11T06:36:42.404Z,1020.55
2017-03-11T06:37:42.422Z,1020.56
2017-03-11T06:38:42.441Z,1020.57
2017-03-11T06:39:42.459Z,1020.56
2017-03-11T06:40:42.476Z,1020.56
2017-03-11T06:41:42.520Z,1020.62
2017-03-11T06:42:42.512Z,1020.65
2017-03-11T06:43:42.530Z,1020.63
2017-03-11T06:44:42.550Z,1020.67
2017-03-11T06:45:42.565Z,1020.7
2017-03-11T06:46:42.583Z,1020.7
2017-03-11T06:48:42.619Z,1020.73
2017-03-11T06:49:42.637Z,1020.74
2017-03-11T06:50:42.655Z,1020.73
2017-03-11T06:51:42.672Z,1020.78
2017-03-11T06:52:42.690Z,1020.76
2017-03-11T06:53:42.708Z,1020.73
2017-03-11T06:54:42.727Z,1020.69
2017-03-11T06:55:42.743Z,1020.73
2017-03-11T06:56:42.761Z,1020.75
2017-03-11T06:57:42.780Z,1020.72
2017-03-11T06:58:42.798Z,1020.73
2017-03-11T06:59:42.815Z,1020.77
2017-03-11T07:00:42.833Z,1020.76
2017-03-11T07:01:42.851Z,1020.76
2017-03-11T07:02:42.868Z,1020.78
2017-03-11T07:04:42.905Z,1020.79
2017-03-11T07:05:42.924Z,1020.78
2017-03-11T07:06:42.941Z,1020.81
2017-03-11T07:07:42.959Z,1020.79
2017-03-11T07:08:42.978Z,1020.78
2017-03-11T07:09:42.995Z,1020.77
2017-03-11T07:10:43.013Z,1020.75
2017-03-11T07:11:43.032Z,1020.72
2017-03-11T07:12:43.050Z,1020.74
2017-03-11T07:13:43.067Z,1020.76
2017-03-11T07:14:43.086Z,1020.75
2017-03-11T07:15:43.104Z,1020.79
2017-03-11T07:16:43.126Z,1020.77
2017-03-11T07:17:43.141Z,1020.86
2017-03-11T07:19:43.178Z,1020.89
2017-03-11T07:20:43.196Z,1020.9
2017-03-11T07:21:43.214Z,1020.9
2017-03-11T07:22:43.232Z,1020.92
2017-03-11T07:23:43.251Z,1020.87
2017-03-11T07:24:43.268Z,1020.86
2017-03-11T07:25:43.287Z,1020.85
2017-03-11T07:26:43.305Z,1020.81
2017-03-11T07:27:43.323Z,1020.78
2017-03-11T07:28:43.342Z,1020.76
2017-03-11T07:29:43.360Z,1020.78
2017-03-11T07:30:43.379Z,1020.78
2017-03-11T07:31:43.397Z,1020.8
2017-03-11T07:32:43.416Z,1020.83
2017-03-11T07:33:43.434Z,1020.77
2017-03-11T07:34:43.453Z,1020.82
2017-03-11T07:35:43.471Z,1020.78
2017-03-11T07:36:43.489Z,1020.8
2017-03-11T07:37:43.508Z,1020.8
2017-03-11T07:38:43.526Z,1020.78
2017-03-11T07:39:43.545Z,1020.78
2017-03-11T07:40:43.565Z,1020.77
2017-03-11T07:41:43.583Z,1020.77
2017-03-11T07:42:43.602Z,1020.74
2017-03-11T07:43:43.621Z,1020.74
2017-03-11T07:44:43.640Z,1020.72
2017-03-11T07:45:43.658Z,1020.7
2017-03-11T07:46:43.677Z,1020.71
2017-03-11T07:47:43.696Z,1020.69
2017-03-11T07:48:43.717Z,1020.67
2017-03-11T07:49:43.735Z,1020.63
2017-03-11T07:51:43.772Z,1020.67
2017-03-11T07:52:43.791Z,1020.66
2017-03-11T07:53:43.810Z,1020.7
2017-03-11T07:54:43.829Z,1020.67
2017-03-11T07:55:43.849Z,1020.7
2017-03-11T07:56:43.868Z,1020.67
2017-03-11T07:57:43.887Z,1020.69
2017-03-11T07:58:43.906Z,1020.72
2017-03-11T07:59:43.926Z,1020.68
2017-03-11T08:00:43.944Z,1020.77
2017-03-11T08:01:43.964Z,1020.79
2017-03-11T08:02:43.987Z,1020.77
2017-03-11T08:03:44.002Z,1020.74
2017-03-11T08:04:44.021Z,1020.79
2017-03-11T08:05:44.042Z,1020.79
2017-03-11T08:07:44.081Z,1020.85
2017-03-11T08:08:44.099Z,1020.84
2017-03-11T08:09:44.119Z,1020.85
2017-03-11T08:10:44.139Z,1020.82
2017-03-11T08:11:44.157Z,1020.79
2017-03-11T08:12:44.177Z,1020.8
2017-03-11T08:13:44.197Z,1020.78
2017-03-11T08:14:44.217Z,1020.78
2017-03-11T08:15:44.235Z,1020.78
2017-03-11T08:16:44.256Z,1020.79
2017-03-11T08:17:44.276Z,1020.79
2017-03-11T08:18:44.295Z,1020.81
2017-03-11T08:19:44.314Z,1020.82
2017-03-11T08:20:44.335Z,1020.78
2017-03-11T08:21:44.354Z,1020.79
2017-03-11T08:23:44.394Z,1020.81
2017-03-11T08:24:44.414Z,1020.79
2017-03-11T08:25:44.434Z,1020.79
2017-03-11T08:26:44.487Z,1020.79
2017-03-11T08:27:44.473Z,1020.77
2017-03-11T08:28:44.494Z,1020.8
2017-03-11T08:29:44.514Z,1020.78
2017-03-11T08:30:44.534Z,1020.81
2017-03-11T08:31:44.554Z,1020.82
2017-03-11T08:32:44.575Z,1020.83
2017-03-11T08:33:44.594Z,1020.82
2017-03-11T08:34:44.615Z,1020.79
2017-03-11T08:35:44.635Z,1020.8
2017-03-11T08:36:44.656Z,1020.76
2017-03-11T08:37:44.677Z,1020.85
2017-03-11T08:39:44.718Z,1020.82
2017-03-11T08:40:44.736Z,1020.74
2017-03-11T08:41:44.754Z,1020.83
2017-03-11T08:42:44.776Z,1020.78
2017-03-11T08:43:44.797Z,1020.8
2017-03-11T08:44:44.817Z,1020.8
2017-03-11T08:45:44.836Z,1020.81
2017-03-11T08:46:44.856Z,1020.82
2017-03-11T08:47:44.879Z,1020.83
2017-03-11T08:48:44.901Z,1020.86
2017-03-11T08:49:44.919Z,1020.88
2017-03-11T08:50:44.940Z,1020.95
2017-03-11T08:51:44.961Z,1020.95
2017-03-11T08:52:44.982Z,1020.92
2017-03-11T08:54:45.024Z,1020.94
2017-03-11T08:55:45.044Z,1020.95
2017-03-11T08:56:45.065Z,1020.97
2017-03-11T08:57:45.085Z,1020.96
2017-03-11T08:58:45.107Z,1021
2017-03-11T08:59:45.127Z,1020.99
2017-03-11T09:00:45.148Z,1020.99
2017-03-11T09:01:45.169Z,1020.93
2017-03-11T09:02:45.190Z,1020.98
2017-03-11T09:03:45.212Z,1020.96
2017-03-11T09:04:45.235Z,1020.97
2017-03-11T09:05:45.254Z,1021
2017-03-11T09:06:45.277Z,1021.01
2017-03-11T09:07:45.296Z,1021.02
2017-03-11T09:08:45.317Z,1021.01
2017-03-11T09:09:45.339Z,1021.03
2017-03-11T09:10:45.359Z,1021.01
2017-03-11T09:11:45.381Z,1021.02
2017-03-11T09:12:45.403Z,1021.03
2017-03-11T09:13:45.424Z,1020.98
2017-03-11T09:14:45.445Z,1020.99
2017-03-11T09:15:45.467Z,1020.98
2017-03-11T09:16:45.488Z,1020.96
2017-03-11T09:17:45.509Z,1020.99
2017-03-11T09:18:45.533Z,1020.97
2017-03-11T09:19:45.552Z,1020.96
2017-03-11T09:20:45.575Z,1020.96
2017-03-11T09:21:45.595Z,1020.97
2017-03-11T09:22:45.617Z,1020.98
2017-03-11T09:23:45.639Z,1021
2017-03-11T09:24:45.659Z,1020.96
2017-03-11T09:26:45.703Z,1020.97
2017-03-11T09:27:45.724Z,1021.04
2017-03-11T09:28:45.745Z,1020.98
2017-03-11T09:29:45.767Z,1020.98
2017-03-11T09:30:45.789Z,1020.98
2017-03-11T09:31:45.810Z,1021.02
2017-03-11T09:32:45.833Z,1021
2017-03-11T09:33:45.852Z,1021.01
2017-03-11T09:34:45.874Z,1020.97
2017-03-11T09:35:45.895Z,1020.99
2017-03-11T09:36:45.916Z,1021.01
2017-03-11T09:37:45.938Z,1021.01
2017-03-11T09:38:45.959Z,1020.98
2017-03-11T09:39:45.980Z,1020.98
2017-03-11T09:40:46.001Z,1020.96
2017-03-11T09:42:46.044Z,1020.93
2017-03-11T09:43:46.064Z,1020.9
2017-03-11T09:44:46.086Z,1020.88
2017-03-11T09:45:46.108Z,1020.9
2017-03-11T09:46:46.127Z,1020.83
2017-03-11T09:47:46.150Z,1020.89
2017-03-11T09:48:46.171Z,1020.92
2017-03-11T09:49:46.192Z,1020.87
2017-03-11T09:50:46.211Z,1020.9
2017-03-11T09:51:46.234Z,1020.85
2017-03-11T09:52:46.255Z,1020.91
2017-03-11T09:53:46.276Z,1020.83
2017-03-11T09:54:46.297Z,1020.82
2017-03-11T09:55:46.318Z,1020.85
2017-03-11T09:56:46.339Z,1020.85
2017-03-11T09:58:46.381Z,1020.85
2017-03-11T09:59:46.402Z,1020.84
2017-03-11T10:00:46.424Z,1020.87
2017-03-11T10:01:46.444Z,1020.85
2017-03-11T10:02:46.465Z,1020.84
2017-03-11T10:03:46.488Z,1020.9
2017-03-11T10:04:46.508Z,1020.88
2017-03-11T10:05:46.529Z,1020.86
2017-03-11T10:06:46.549Z,1020.9
2017-03-11T10:07:46.572Z,1020.89
2017-03-11T10:08:46.592Z,1020.94
2017-03-11T10:09:46.614Z,1020.92
2017-03-11T10:10:46.637Z,1020.92
2017-03-11T10:11:46.657Z,1020.9
2017-03-11T10:12:46.677Z,1020.91
2017-03-11T10:14:46.720Z,1020.85
2017-03-11T10:15:46.742Z,1020.83
2017-03-11T10:16:46.762Z,1020.84
2017-03-11T10:17:46.784Z,1020.84
2017-03-11T10:18:46.805Z,1020.81
2017-03-11T10:19:46.826Z,1020.83
2017-03-11T10:20:46.848Z,1020.83
2017-03-11T10:21:46.870Z,1020.85
2017-03-11T10:22:46.891Z,1020.86
2017-03-11T10:23:46.912Z,1020.9
2017-03-11T10:24:46.934Z,1020.89
2017-03-11T10:25:46.956Z,1020.89
2017-03-11T10:26:46.977Z,1020.87
2017-03-11T10:27:47.013Z,1020.81
2017-03-11T10:29:47.042Z,1020.83
2017-03-11T10:30:47.068Z,1020.82
2017-03-11T10:31:47.085Z,1020.83
2017-03-11T10:32:47.107Z,1020.86
2017-03-11T10:33:47.134Z,1020.81
2017-03-11T10:34:47.150Z,1020.87
2017-03-11T10:35:47.172Z,1020.83
2017-03-11T10:36:47.194Z,1020.84
2017-03-11T10:37:47.224Z,1020.8
2017-03-11T10:38:47.242Z,1020.79
2017-03-11T10:39:47.258Z,1020.76
2017-03-11T10:40:47.279Z,1020.72
2017-03-11T10:41:47.301Z,1020.75
2017-03-11T10:42:47.322Z,1020.7
2017-03-11T10:43:47.345Z,1020.73
2017-03-11T10:44:47.367Z,1020.77
2017-03-11T10:45:47.388Z,1020.77
2017-03-11T10:46:47.411Z,1020.74
2017-03-11T10:47:47.431Z,1020.75
2017-03-11T10:48:47.453Z,1020.74
2017-03-11T10:49:47.475Z,1020.72
2017-03-11T10:50:47.497Z,1020.76
2017-03-11T10:51:47.519Z,1020.75
2017-03-11T10:52:47.541Z,1020.73
2017-03-11T10:53:47.562Z,1020.75
2017-03-11T10:54:47.585Z,1020.73
2017-03-11T10:55:47.607Z,1020.76
2017-03-11T10:56:47.626Z,1020.77
2017-03-11T10:57:47.650Z,1020.75
2017-03-11T10:58:47.672Z,1020.74
2017-03-11T10:59:47.693Z,1020.75
2017-03-11T11:01:47.737Z,1020.72
2017-03-11T11:02:47.759Z,1020.7
2017-03-11T11:03:47.780Z,1020.7
2017-03-11T11:04:47.802Z,1020.71
2017-03-11T11:05:47.825Z,1020.7
2017-03-11T11:06:47.847Z,1020.68
2017-03-11T11:07:47.870Z,1020.7
2017-03-11T11:08:47.890Z,1020.68
2017-03-11T11:09:47.912Z,1020.67
2017-03-11T11:10:47.934Z,1020.64
2017-03-11T11:11:47.956Z,1020.65
2017-03-11T11:12:47.978Z,1020.6
2017-03-11T11:13:48.001Z,1020.58
2017-03-11T11:14:48.026Z,1020.59
2017-03-11T11:15:48.046Z,1020.58
2017-03-11T11:17:48.089Z,1020.57
2017-03-11T11:18:48.111Z,1020.56
2017-03-11T11:19:48.132Z,1020.57
2017-03-11T11:20:48.155Z,1020.54
2017-03-11T11:21:48.176Z,1020.54
2017-03-11T11:22:48.199Z,1020.54
2017-03-11T11:23:48.221Z,1020.52
2017-03-11T11:24:48.245Z,1020.51
2017-03-11T11:25:48.265Z,1020.48
2017-03-11T11:26:48.286Z,1020.51
2017-03-11T11:27:48.319Z,1020.51
2017-03-11T11:28:48.332Z,1020.52
2017-03-11T11:29:48.352Z,1020.52
2017-03-11T11:30:48.375Z,1020.46
2017-03-11T11:31:48.397Z,1020.49
2017-03-11T11:33:48.440Z,1020.45
2017-03-11T11:34:48.463Z,1020.46
2017-03-11T11:35:48.484Z,1020.45
2017-03-11T11:36:48.506Z,1020.47
2017-03-11T11:37:48.528Z,1020.45
2017-03-11T11:38:48.550Z,1020.44
2017-03-11T11:39:48.572Z,1020.49
2017-03-11T11:40:48.593Z,1020.49
2017-03-11T11:41:48.615Z,1020.44
2017-03-11T11:42:48.638Z,1020.46
2017-03-11T11:43:48.660Z,1020.43
2017-03-11T11:44:48.684Z,1020.42
2017-03-11T11:45:48.704Z,1020.43
2017-03-11T11:46:48.727Z,1020.38
2017-03-11T11:47:48.748Z,1020.41
2017-03-11T11:49:48.791Z,1020.38
2017-03-11T11:50:48.814Z,1020.37
2017-03-11T11:51:48.835Z,1020.41
2017-03-11T11:52:48.858Z,1020.35
2017-03-11T11:53:48.879Z,1020.37
2017-03-11T11:54:48.901Z,1020.34
2017-03-11T11:55:48.927Z,1020.29
2017-03-11T11:56:48.947Z,1020.26
2017-03-11T11:57:48.969Z,1020.31
2017-03-11T11:58:48.990Z,1020.27
2017-03-11T11:59:49.012Z,1020.28
2017-03-11T12:00:49.033Z,1020.25
2017-03-11T12:01:49.056Z,1020.25
2017-03-11T12:02:49.077Z,1020.21
2017-03-11T12:04:49.122Z,1020.23
2017-03-11T12:05:49.144Z,1020.2
2017-03-11T12:06:49.165Z,1020.19
2017-03-11T12:07:49.188Z,1020.16
2017-03-11T12:08:49.211Z,1020.12
2017-03-11T12:09:49.231Z,1020.13
2017-03-11T12:10:49.256Z,1020.12
2017-03-11T12:11:49.276Z,1020.17
2017-03-11T12:12:49.297Z,1020.15
2017-03-11T12:13:49.319Z,1020.14
2017-03-11T12:14:49.342Z,1020.06
2017-03-11T12:15:49.363Z,1020.08
2017-03-11T12:16:49.385Z,1020.06
2017-03-11T12:17:49.406Z,1020.06
2017-03-11T12:18:49.429Z,1020.07
2017-03-11T12:19:49.454Z,1020.04
2017-03-11T12:20:49.472Z,1020.05
2017-03-11T12:21:49.494Z,1020.06
2017-03-11T12:22:49.516Z,1020.03
2017-03-11T12:23:49.538Z,1020.07
2017-03-11T12:24:49.561Z,1020.08
2017-03-11T12:25:49.582Z,1020.05
2017-03-11T12:26:49.603Z,1020.08
2017-03-11T12:27:49.625Z,1020.07
2017-03-11T12:28:49.646Z,1020.06
2017-03-11T12:29:49.668Z,1020.02
2017-03-11T12:30:49.691Z,1020.02
2017-03-11T12:31:49.712Z,1020.01
2017-03-11T12:32:49.734Z,1019.99
2017-03-11T12:33:49.757Z,1020.02
2017-03-11T12:34:49.778Z,1019.97
2017-03-11T12:36:49.822Z,1019.95
2017-03-11T12:37:49.844Z,1019.95
2017-03-11T12:38:49.866Z,1019.94
2017-03-11T12:39:49.888Z,1019.95
2017-03-11T12:40:49.910Z,1019.97
2017-03-11T12:41:49.932Z,1019.91
2017-03-11T12:42:49.952Z,1019.92
2017-03-11T12:43:49.975Z,1019.93
2017-03-11T12:44:49.997Z,1019.95
2017-03-11T12:45:50.018Z,1019.96
2017-03-11T12:46:50.040Z,1019.95
2017-03-11T12:47:50.064Z,1019.97
2017-03-11T12:48:50.086Z,1019.94